Capo Mele, Italy

2:01 PM CEST on October 25, 2014 (GMT +0200)
ILIGURIA92 | Change Station
CLOSE
Current Station
Personal Weather Station
Location: Andora, LIGURIA
Elevation: 469 ft
Nearby Weather Stations

Elev 469 ft 43.97 °N, 8.16 °E | Updated 1 minute ago

Clear
Clear
65.6 °F
Feels Like 65.6 °F
N
2.0
Wind Variable Wind from NNE
Gusts 9.0 mph

Today
High -- | Low -- °F
--% Chance of Precip.
Yesterday
High -- | Low -- °F
Precip. -- in
7:54 AM 6:27 PM
Waxing Crescent, 3% visible
Pressure 30.09 in
Visibility -9999.0 miles
Clouds
Dew Point 50 °F
Humidity 58%
Rainfall 0.00 in
Snow Depth Not available.
UV Not available.
Pollen Not available.
Air Quality Not available.
Flu Activity Not available.
METAR LIMJ 251150Z 05011KT 020V080 CAVOK 17/09 Q1019

More Conditions Fewer Conditions

Pressure 30.09 in
Visibility -9999.0 miles
Clouds
Dew Point 50 °F
Humidity 58%
Rainfall 0.00 in
Snow Depth Not available.
UV Not available.
Pollen Not available.
Air Quality Not available.
Flu Activity Not available.
METAR LIMJ 251150Z 05011KT 020V080 CAVOK 17/09 Q1019

More Conditions Fewer Conditions

10-Day Weather Forecast

Almanac

Astronomy

Oct. 25, 2014 Rise Set
Actual Time 7:54 AM CEST 6:27 PM CEST
Civil Twilight 7:24 AM CEST 6:57 PM CEST
Nautical Twilight 6:50 AM CEST 7:31 PM CEST
Astronomical Twilight 6:17 AM CEST 8:04 PM CEST
Moon 9:18 AM CEST 7:36 PM CEST
Length of Visible Light 11h 32m
Length of Day
10h 33m
Tomorrow will be 2m 47s shorter.
Waxing Crescent, 3% of the Moon is Illuminated
Today
Waxing Crescent
Oct 30
First Quarter
Nov 6
Full
Nov 14
Last Quarter
Nov 22
New

Yesterday's Extremes

Country Highs Country Lows

Community

WunderPhotos

Upload Photos

1,764,816 photos uploaded!

Nearby

Snow Depth

Not available.

Earthquake Activity

City Distance Mag. Time & Date
No recent earthquake activity has been reported nearby.
Minimum magnitude displayed is 2.5.

Coastal Water Temperatures

Place Temperature
No Stations Reporting

Nearby Weather Stations